x

West Tampa - 112 Nm Wnw Of Tampa, Fl (42036) Wave Buoy

12:50am - Sun 26th Jun 2016 All times are EDT. -4 hours from GMT.

  • Sig Wave height 0.3ft
  • Average Period 4s
  • Wind
    7mph
  • Sea Temp 86°f
  • Air Temp 83°f
  • Sea Pressure 1018.8mb
  • West Tampa  - 112 Nm Wnw Of Tampa, Fl
  • West Tampa  - 112 Nm Wnw Of Tampa, Fl

More Historic Weather Station data

Upgrade to MSW Pro to gain access to the past 30 days of data for over 8000 Wavebouys and Weather Stations around the globe.

Join Pro

Comparision Forecast

View Surf forecast
   
Sun 06/26 12:50am 0.3ft  -  4s 7
mph
1018.8mb 86f 83f
Sat 06/25 11:50pm 0.3ft  -  4s 7 9 mph 1018.7mb 86f 83f
10:50pm 0.3ft  -  4s 4 7 mph 1018.6mb 86f 83f
9:50pm 0.3ft  -  4s  -  2 mph 1018.3mb 86f 83f
8:50pm 0.3ft  -  3s  -  mph 1018.2mb 87f 84f
5:50pm 0.7ft  -  3s 2
mph
1018.4mb 87f 85f
4:50pm 0.7ft  -  3s 2 4 mph 1018.9mb 87f 84f
3:50pm 0.7ft  -  3s 4
mph
1019.1mb 87f 83f
2:50pm 0.7ft  -  3s 4 7 mph 1019.3mb 86f 83f
1:50pm 0.7ft  -  3s 4 7 mph 1019.8mb 85f 83f
12:50pm 0.7ft  -  3s 4 7 mph 1020.2mb 85f 83f
11:50am 0.3ft  -  3s 4 7 mph 1020.4mb 85f 83f
10:50am 0.3ft  -  4s 7 9 mph 1020.1mb 84f 83f
9:50am 0.3ft  -  4s 7 9 mph 1020.1mb 84f 83f
8:50am 0.3ft  -  4s 7 9 mph 1019.8mb 84f 83f
7:50am 0.3ft  -  4s 7 9 mph 1019.1mb 84f 83f
6:50am 0.3ft  -  4s 7
mph
1018.5mb 84f 82f
5:50am 0.3ft  -  4s 4 7 mph 1017.9mb 84f 82f
4:50am 0.7ft  -  5s 4
mph
1017.6mb 84f 82f
3:50am 0.7ft  -  5s 4 7 mph 1017.7mb 84f 82f
2:50am 0.7ft  -  5s 2 4 mph 1017.9mb 84f 82f
1:50am 0.7ft  -  5s 4
mph
1018.3mb 85f 83f
12:50am 0.7ft  -  5s 4
mph
1018.4mb 85f 83f
Fri 06/24 11:50pm 0.7ft  -  5s 2 4 mph 1018.6mb 85f 83f
10:50pm 0.7ft  -  5s 4
mph
1018.5mb 85f 83f
9:50pm 0.7ft  -  5s 2 4 mph 1017.9mb 84f 83f
8:50pm 0.7ft  -  5s 2
mph
1017.8mb 85f 83f
7:50pm 0.7ft  -  5s  -  2 mph 1017.7mb 85f 87f
6:50pm 0.7ft  -  5s 2
mph
1017.9mb 85f 85f
5:50pm 0.7ft  -  4s 4 7 mph 1018.4mb 86f 84f
4:50pm 0.7ft  -  4s 2 4 mph 1018.7mb 86f 83f
3:50pm 0.7ft  -  4s 4 7 mph 1019.3mb 86f 83f
2:50pm 0.7ft  -  3s 4 9 mph 1019.7mb 86f 83f
1:50pm 0.7ft  -  3s 4
mph
1020.2mb 85f 83f
12:50pm 0.7ft  -  3s 4
mph
1020.2mb 84f 83f
11:50am 0.7ft  -  4s 7 9 mph 1020.8mb 84f 83f
10:50am 0.7ft  -  5s 7 9 mph 1020.7mb 83f 83f
9:50am 0.7ft  -  5s 9 11 mph 1020.6mb 83f 83f
8:50am 0.3ft  -  5s 7 9 mph 1020.3mb 83f 83f
7:50am 0.3ft  -  4s 7 9 mph 1019.4mb 83f 83f
6:50am 0.3ft  -  4s 7
mph
1019.1mb 83f 82f
5:50am 0.3ft  -  4s 4 7 mph 1018.6mb 83f 82f
4:50am 0.7ft  -  4s 2 4 mph 1018.6mb 83f 82f
3:50am 0.7ft  -  4s 2 4 mph 1018.4mb 83f 82f
2:50am 0.7ft  -  4s 2 4 mph 1018.9mb 83f 82f
1:50am 0.7ft  -  4s 2 4 mph 1019mb 83f 82f
12:50am 0.7ft  -  4s 4
mph
1018.9mb 84f 82f
Thu 06/23 11:50pm 1ft 4s 4s 4 7 mph 1018.6mb 84f 82f
10:50pm 1ft 3s 3s 4 7 mph 1018.4mb 84f 83f
9:50pm 1ft 3s 3s 4
mph
1018.1mb 84f 83f
8:50pm 1ft 3s 3s 2
mph
1018mb 85f 83f
7:50pm 1ft 4s 3s  -  2 mph 1018.1mb 85f 86f
6:50pm 1ft 4s 3s 2
mph
1018.2mb 85f 85f
5:50pm 1ft 4s 3s 2
mph
1018.7mb 85f 84f
4:50pm 1ft 4s 3s 4 7 mph 1019.2mb 84f 83f
3:50pm 1ft 4s 4s 9
mph
1019.7mb 84f 83f
2:50pm 0.7ft  -  3s 7 9 mph 1020.2mb 84f 83f
1:50pm 0.7ft  -  4s 7
mph
1020.8mb 84f 83f
12:50pm 0.7ft  -  4s 7 9 mph 1021.2mb 84f 83f
11:50am 0.7ft  -  4s 7
mph
1021.3mb 83f 83f
10:50am 0.7ft  -  4s 7
mph
1021.2mb 83f 83f
9:50am 0.7ft  -  4s 4 7 mph 1021.1mb 83f 83f
8:50am 0.7ft  -  4s 2
mph
1020.5mb 82f 83f
7:50am 0.7ft  -  4s 2 4 mph 1019.7mb 82f 83f
6:50am 0.7ft  -  4s 4
mph
1019.3mb 82f 82f
5:50am 1ft 5s 4s 4
mph
1018.8mb 82f 82f
3:50am 1ft 5s 4s 2
mph
1018.8mb 82f 82f
2:50am 1ft 5s 4s  -  2 mph 1019.2mb 82f 82f
1:50am 1ft 4s 4s 2 4 mph 1019.7mb 82f 83f
12:50am 1ft 5s 4s 2
mph
1020.1mb 82f 83f
Wed 06/22 11:50pm 1.3ft 5s 4s 4
mph
1020.4mb 82f 83f
10:50pm 1.3ft 5s 4s 4
mph
1020.2mb 82f 83f
9:50pm 1.3ft 5s 4s 4 7 mph 1019.6mb 83f 83f
8:50pm 1.3ft 4s 4s 7
mph
1019.2mb 83f 83f
7:50pm 1.6ft 5s 4s 7 9 mph 1019.1mb 83f 83f
6:50pm 1.6ft 5s 4s 7 9 mph 1018.9mb 83f 83f
5:50pm 2ft 5s 4s 9
mph
1018.9mb 83f 83f
4:50pm 2ft 4s 4s 9 11 mph 1019.4mb 83f 83f
3:50pm 2.5ft 5s 4s 11 13 mph 1019.9mb 83f 82f
2:50pm 2.5ft 5s 4s 11 13 mph 1020mb 83f 82f
1:50pm 2.5ft 5s 4s 13
mph
1020.2mb 82f 82f
12:50pm 2.5ft 5s 4s 11 16 mph 1020.6mb 82f 82f
11:50am 2.5ft 4s 4s 13 16 mph 1020.5mb 82f 82f
10:50am 2.5ft 4s 4s 13 16 mph 1020mb 82f 82f
9:50am 2ft 4s 3s 16 18 mph 1019.7mb 82f 81f
8:50am 1.6ft 4s 3s 13 16 mph 1019.4mb 82f 81f
7:50am 1.6ft 4s 3s 13 16 mph 1019mb 82f 81f
6:50am 1.6ft 3s 3s 11 13 mph 1018.6mb 82f 82f